Meridian, MS

3:09 PM CDT on August 21, 2014 (GMT -0500)
Key | Change Station
CLOSE
Current Station
Airport
Location: Meridian,
Elevation: 308 ft
Nearby Weather Stations

Elev 308 ft 32.33 °N, 88.75 °W | Updated 11 minutes ago

Partly Cloudy
Partly Cloudy
93 °F
Feels Like 96 °F
N
4
Wind Variable Wind from Variable

Today
High -- | Low -- °F
--% Chance of Precip.
Yesterday
High -- | Low -- °F
Precip. -- in
6:23 AM 7:32 PM
Waning Crescent, 12% visible
Pressure 30.08 in
Visibility 10.0 miles
Clouds Few 5500 ft
Heat Index 96 °F
Dew Point 67 °F
Humidity 42%
Rainfall 0.03 in
Snow Depth Not available.
UV 8 out of 12
Pollen 8.40 out of 12
Air Quality Not available.
Flu Activity Not available.
METAR KMEI 211958Z AUTO VRB03KT 10SM FEW055 34/19 A3010 RMK AO2 SLP186 T03390194 TSNO

More Conditions Fewer Conditions

Pressure 30.08 in
Visibility 10.0 miles
Clouds Few 5500 ft
Heat Index 96 °F
Dew Point 67 °F
Humidity 42%
Rainfall 0.03 in
Snow Depth Not available.
UV 8 out of 12
Pollen 8.40 out of 12
Air Quality Not available.
Flu Activity Not available.
METAR KMEI 211958Z AUTO VRB03KT 10SM FEW055 34/19 A3010 RMK AO2 SLP186 T03390194 TSNO

More Conditions Fewer Conditions

10-Day Weather Forecast

Almanac

Astronomy

Aug. 21, 2014 Rise Set
Actual Time 6:23 AM CDT 7:32 PM CDT
Civil Twilight 5:57 AM CDT 7:58 PM CDT
Nautical Twilight 5:27 AM CDT 8:28 PM CDT
Astronomical Twilight 4:55 AM CDT 8:59 PM CDT
Moon 2:58 AM CDT 4:56 PM CDT
Length of Visible Light 14h 00m
Length of Day
13h 09m
Tomorrow will be 1m 48s shorter.
Waning Crescent, 12% of the Moon is Illuminated
Today
Waning Crescent
Aug 25
New
Sep 2
First Quarter
Sep 8
Full
Sep 15
Last Quarter

Today's Extremes

State Highs State Lows

Community

WunderPhotos

Upload Photos

1,746,011 photos uploaded!

WunderBlogs® & News

Nearby

Snow Depth

Station Depth Elevation
No new snow has been reported.

Earthquake Activity

City Distance Mag. Time & Date
No recent earthquake activity has been reported nearby.
Minimum magnitude displayed is 2.5.

Coastal Water Temperatures

Place Temperature
No Stations Reporting

Nearby Weather Stations